Terminal Aerodrome Forecast
Issued by NWS

Home | Current Version | Previous Version | Text Only | Print | Product List | Glossary On
Versions: 1 2 3 4 5 6 7 8 9 10 11 12 13 14 15 16 17 18 19 20 21 22
000
FTUS43 KPAH 031138
TAFCGI
TAF
KCGI 031138Z 0312/0412 VRB03KT P6SM SCT030 BKN100
     FM031500 VRB04KT P6SM VCSH BKN025
      TEMPO 0318/0322 2SM -TSRA BR OVC015CB
     FM032200 01003KT P6SM SCT040 BKN100
     FM040800 34003KT 5SM BR SCT250
      TEMPO 0408/0412 3SM BR=

USA.gov is the U.S. government's official web portal to all federal, state and local government web resources and services.